Time;durP1;ratioP1;P1;durP2;ratioP2;P2;SDS_P1;SDS_P2;PMS_P1;PMS_P2;Temp;Humidity;BMP_temperature;BMP_pressure;BME280_temperature;BME280_humidity;BME280_pressure;Samples;Min_cycle;Max_cycle;Signal;HPM_P1;HPM_P2
2023/03/14 00:01:15;;;;;;;8.50;3.60;;;;;;;4.11;100.00;99434.15;110076;1276;22523;-68
2023/03/14 00:03:47;;;;;;;8.00;3.50;;;;;;;4.13;100.00;99433.00;110296;1276;22190;-68
2023/03/14 00:06:14;;;;;;;7.90;4.00;;;;;;;4.13;100.00;99428.97;110021;1276;22337;-68
2023/03/14 00:08:41;;;;;;;9.00;4.20;;;;;;;4.13;100.00;99424.76;110196;1276;22307;-68
2023/03/14 00:11:16;;;;;;;7.30;3.90;;;;;;;4.10;100.00;99425.47;110207;1271;23399;-68
2023/03/14 00:13:43;;;;;;;6.30;3.70;;;;;;;4.11;100.00;99425.33;110199;1276;22980;-68
2023/03/14 00:16:18;;;;;;;7.00;3.60;;;;;;;4.18;100.00;99422.02;110074;1270;22317;-68
2023/03/14 00:18:45;;;;;;;5.40;3.30;;;;;;;4.17;100.00;99416.46;110276;1271;22214;-68
2023/03/14 00:21:12;;;;;;;7.40;3.90;;;;;;;4.15;100.00;99417.11;110325;1275;22584;-68
2023/03/14 00:23:45;;;;;;;7.00;4.30;;;;;;;4.13;100.00;99414.52;110277;1276;22227;-68
2023/03/14 00:26:14;;;;;;;7.80;4.60;;;;;;;4.10;100.00;99407.78;110220;1274;22434;-68
2023/03/14 00:28:41;;;;;;;6.20;4.30;;;;;;;4.11;100.00;99406.51;110275;1276;22518;-68
2023/03/14 00:31:11;;;;;;;7.50;4.10;;;;;;;4.15;100.00;99404.39;110072;1276;23756;-68
2023/03/14 00:33:39;;;;;;;7.10;4.20;;;;;;;4.14;100.00;99403.94;106986;1275;23643;-68
2023/03/14 00:36:08;;;;;;;10.00;4.40;;;;;;;4.10;100.00;99398.98;106629;1273;25383;-68
2023/03/14 00:38:38;;;;;;;8.50;4.70;;;;;;;4.05;100.00;99394.91;106756;1270;25259;-68
2023/03/14 00:41:07;;;;;;;6.80;3.80;;;;;;;4.01;100.00;99393.31;106583;1273;22530;-68
2023/03/14 00:43:34;;;;;;;7.60;4.10;;;;;;;4.02;100.00;99391.23;106971;1271;23025;-68
2023/03/14 00:46:01;;;;;;;8.20;4.30;;;;;;;4.04;100.00;99385.77;106625;1271;26836;-68
2023/03/14 00:48:29;;;;;;;9.60;4.90;;;;;;;3.99;100.00;99393.48;107038;1272;24272;-68
2023/03/14 00:50:56;;;;;;;8.30;4.70;;;;;;;3.91;100.00;99386.33;106700;1276;23919;-68
2023/03/14 00:53:29;;;;;;;8.70;4.20;;;;;;;3.86;100.00;99385.66;106686;1275;23709;-68
2023/03/14 00:55:56;;;;;;;7.40;4.20;;;;;;;3.81;100.00;99384.73;106547;1271;25516;-69
2023/03/14 00:58:23;;;;;;;8.40;4.20;;;;;;;3.86;100.00;99384.05;107554;1270;26080;-68
2023/03/14 01:00:50;;;;;;;8.30;4.70;;;;;;;3.83;100.00;99379.05;110120;1272;22396;-68
2023/03/14 01:03:17;;;;;;;7.40;4.20;;;;;;;3.80;100.00;99382.59;110127;1274;23959;-67
2023/03/14 01:05:50;;;;;;;7.90;4.40;;;;;;;3.76;100.00;99380.60;110188;1273;23154;-71
2023/03/14 01:08:17;;;;;;;7.20;4.50;;;;;;;3.74;100.00;99388.64;110227;1270;22278;-68
2023/03/14 01:10:43;;;;;;;8.40;4.40;;;;;;;3.77;100.00;99386.98;110292;1275;22435;-68
2023/03/14 01:13:11;;;;;;;9.20;4.80;;;;;;;3.81;100.00;99388.53;110115;1271;22473;-69
2023/03/14 01:15:39;;;;;;;7.10;4.30;;;;;;;3.77;100.00;99386.71;110308;1276;23040;-69
2023/03/14 01:18:06;;;;;;;7.30;4.40;;;;;;;3.72;100.00;99387.79;110049;1276;22409;-68
2023/03/14 01:20:32;;;;;;;8.20;4.60;;;;;;;3.67;100.00;99390.30;110324;1276;22222;-69
2023/03/14 01:22:59;;;;;;;7.10;4.20;;;;;;;3.65;100.00;99394.52;110288;1275;23094;-69
2023/03/14 01:25:26;;;;;;;6.00;4.20;;;;;;;3.67;100.00;99392.91;110321;1276;22405;-68
2023/03/14 01:27:54;;;;;;;7.70;4.60;;;;;;;3.63;100.00;99386.14;110176;1276;22456;-69
2023/03/14 01:30:22;;;;;;;7.90;4.30;;;;;;;3.57;100.00;99387.08;110329;1274;22257;-69
2023/03/14 01:32:48;;;;;;;7.10;4.20;;;;;;;3.52;100.00;99382.65;110090;1273;22330;-69
2023/03/14 01:35:15;;;;;;;8.20;4.30;;;;;;;3.53;100.00;99379.98;110141;1273;22408;-69
2023/03/14 01:37:43;;;;;;;6.20;3.60;;;;;;;3.56;100.00;99382.31;110207;1270;22298;-69
2023/03/14 01:40:16;;;;;;;8.00;4.20;;;;;;;3.53;100.00;99383.38;106965;1270;22689;-69
2023/03/14 01:42:46;;;;;;;6.10;3.60;;;;;;;3.46;100.00;99381.35;110141;1275;22844;-69
2023/03/14 01:45:50;;;;;;;7.60;3.70;;;;;;;3.42;100.00;99381.09;110233;1274;22397;-68
2023/03/14 01:48:18;;;;;;;8.30;4.10;;;;;;;3.44;100.00;99378.98;110069;1274;22287;-68
2023/03/14 01:50:46;;;;;;;9.50;4.10;;;;;;;3.42;100.00;99374.73;110230;1274;22465;-69
2023/03/14 01:53:14;;;;;;;9.40;4.20;;;;;;;3.36;100.00;99372.93;110115;1275;22205;-69
2023/03/14 01:55:41;;;;;;;6.90;4.40;;;;;;;3.29;100.00;99368.41;109984;1270;22344;-69
2023/03/14 01:58:08;;;;;;;8.70;4.00;;;;;;;3.23;100.00;99366.85;110113;1270;22347;-69
2023/03/14 02:00:35;;;;;;;6.90;4.30;;;;;;;3.23;100.00;99365.29;110208;1276;23149;-69
2023/03/14 02:03:06;;;;;;;6.40;3.90;;;;;;;3.21;100.00;99367.46;110312;1276;22909;-69
2023/03/14 02:05:38;;;;;;;6.40;4.00;;;;;;;3.14;100.00;99371.11;110050;1276;23117;-68
2023/03/14 02:08:11;;;;;;;7.00;4.30;;;;;;;3.06;100.00;99373.23;110097;1276;22391;-68
2023/03/14 02:10:54;;;;;;;7.20;3.80;;;;;;;3.03;100.00;99373.25;110218;1276;22281;-68
2023/03/14 02:13:36;;;;;;;7.20;3.90;;;;;;;3.04;100.00;99373.60;110175;1270;23515;-69
2023/03/14 02:16:16;;;;;;;7.50;4.00;;;;;;;2.97;100.00;99370.68;110180;1270;22502;-69
2023/03/14 02:18:43;;;;;;;9.40;4.30;;;;;;;2.88;100.00;99371.45;110277;1273;22227;-69
2023/03/14 02:21:37;;;;;;;6.10;4.30;;;;;;;2.80;100.00;99373.23;110092;1275;22427;-69
2023/03/14 02:24:04;;;;;;;6.30;3.60;;;;;;;2.79;100.00;99375.73;110209;1270;23026;-69
2023/03/14 02:27:05;;;;;;;6.30;3.50;;;;;;;2.77;100.00;99378.79;110035;1273;22315;-69
2023/03/14 02:29:37;;;;;;;9.50;4.50;;;;;;;2.68;100.00;99379.41;110128;1276;22395;-68
2023/03/14 02:32:04;;;;;;;6.70;4.30;;;;;;;2.62;100.00;99378.56;109948;1276;22469;-68
2023/03/14 02:34:31;;;;;;;5.90;3.60;;;;;;;2.63;100.00;99375.95;109994;1275;22382;-69
2023/03/14 02:36:58;;;;;;;6.40;3.80;;;;;;;2.63;100.00;99370.83;109994;1269;23228;-69
2023/03/14 02:39:33;;;;;;;7.60;4.00;;;;;;;2.58;100.00;99368.60;110007;1276;22419;-69
2023/03/14 02:42:00;;;;;;;7.30;4.00;;;;;;;2.50;100.00;99375.13;110118;1276;22250;-69
2023/03/14 02:44:29;;;;;;;7.10;3.80;;;;;;;2.44;100.00;99377.23;110077;1271;23103;-69
2023/03/14 02:47:02;;;;;;;6.80;3.90;;;;;;;2.44;100.00;99376.68;110186;1270;22349;-70
2023/03/14 02:49:31;;;;;;;6.50;3.80;;;;;;;2.45;100.00;99379.89;110140;1271;22443;-69
2023/03/14 02:51:58;;;;;;;7.10;4.10;;;;;;;2.38;100.00;99378.73;110078;1271;22776;-69
2023/03/14 02:54:26;;;;;;;8.10;4.00;;;;;;;2.32;100.00;99387.15;110105;1276;22197;-68
2023/03/14 02:56:53;;;;;;;6.50;4.20;;;;;;;2.25;100.00;99393.84;110089;1269;22620;-69
2023/03/14 02:59:20;;;;;;;6.40;3.80;;;;;;;2.27;100.00;99401.89;110031;1276;22292;-71
2023/03/14 03:01:51;;;;;;;7.10;3.80;;;;;;;2.29;100.00;99400.56;110228;1269;22420;-68
2023/03/14 03:04:18;;;;;;;6.80;3.90;;;;;;;2.26;100.00;99405.45;110204;1269;22323;-68
2023/03/14 03:06:46;;;;;;;5.90;3.60;;;;;;;2.19;100.00;99406.94;110113;1270;160030;-68
2023/03/14 03:11:04;;;;;;;5.60;3.40;;;;;;;2.11;100.00;99397.90;105949;1304;545146;-68
2023/03/14 03:13:35;;;;;;;7.60;3.50;;;;;;;2.10;100.00;99399.90;109207;1287;23081;-68
2023/03/14 03:16:04;;;;;;;6.20;3.40;;;;;;;2.11;100.00;99394.06;109319;1288;22373;-68
2023/03/14 03:18:34;;;;;;;7.20;3.70;;;;;;;2.07;100.00;99396.34;109355;1284;22253;-68
2023/03/14 03:21:03;;;;;;;7.30;3.70;;;;;;;2.01;100.00;99398.03;109424;1289;23146;-69
2023/03/14 03:23:31;;;;;;;7.30;3.60;;;;;;;1.95;100.00;99394.80;109401;1284;23108;-68
2023/03/14 03:25:59;;;;;;;6.10;3.70;;;;;;;1.97;100.00;99392.87;109366;1287;22446;-68
2023/03/14 03:28:28;;;;;;;6.40;3.70;;;;;;;1.99;100.00;99391.44;109466;1282;23307;-68
2023/03/14 03:30:58;;;;;;;6.80;3.80;;;;;;;1.95;100.00;99386.38;109467;1287;22955;-68
2023/03/14 03:33:26;;;;;;;6.30;3.70;;;;;;;1.88;100.00;99388.10;109558;1282;22255;-68
2023/03/14 03:35:55;;;;;;;6.60;4.00;;;;;;;1.84;100.00;99388.10;109517;1285;22479;-70
2023/03/14 03:38:28;;;;;;;6.60;3.70;;;;;;;1.85;100.00;99385.48;109243;1287;22539;-68
2023/03/14 03:41:07;;;;;;;7.50;3.50;;;;;;;1.84;100.00;99378.74;106282;1287;22683;-68
2023/03/14 03:43:37;;;;;;;6.10;3.80;;;;;;;1.78;100.00;99371.21;106648;1283;24254;-68
2023/03/14 03:46:06;;;;;;;8.70;3.80;;;;;;;1.72;100.00;99366.41;106005;1286;26526;-68
2023/03/14 03:48:35;;;;;;;6.40;3.50;;;;;;;1.72;100.00;99362.23;106200;1281;25354;-67
2023/03/14 03:51:05;;;;;;;6.90;4.00;;;;;;;1.74;100.00;99360.55;106437;1280;25318;-68
2023/03/14 03:53:40;;;;;;;5.60;3.60;;;;;;;1.69;100.00;99359.75;106060;1282;25384;-67
2023/03/14 03:56:11;;;;;;;6.60;3.80;;;;;;;1.64;100.00;99357.16;106011;1287;23230;-68
2023/03/14 03:58:41;;;;;;;7.60;4.10;;;;;;;1.60;100.00;99364.17;107074;1286;25342;-67
2023/03/14 04:01:13;;;;;;;6.30;3.90;;;;;;;1.61;100.00;99363.63;106459;1286;25357;-67
2023/03/14 04:03:41;;;;;;;7.70;4.20;;;;;;;1.61;100.00;99368.30;106192;1287;22695;-68
2023/03/14 04:06:11;;;;;;;6.10;4.00;;;;;;;1.57;100.00;99369.30;106249;1285;26338;-68
2023/03/14 04:08:41;;;;;;;6.90;4.80;;;;;;;1.50;100.00;99369.32;109305;1284;22439;-68
2023/03/14 04:11:14;;;;;;;7.00;4.20;;;;;;;1.51;100.00;99375.66;109456;1287;22377;-68
2023/03/14 04:14:05;;;;;;;6.10;3.90;;;;;;;1.56;100.00;99372.27;109413;1285;22362;-68
2023/03/14 04:16:34;;;;;;;7.10;3.90;;;;;;;1.57;100.00;99374.81;109406;1287;22380;-70
2023/03/14 04:19:11;;;;;;;5.30;3.70;;;;;;;1.53;100.00;99370.85;109424;1283;22226;-69
2023/03/14 04:21:44;;;;;;;6.60;4.40;;;;;;;1.49;100.00;99370.15;109325;1285;22407;-69
2023/03/14 04:24:13;;;;;;;5.90;3.70;;;;;;;1.55;100.00;99371.41;109405;1283;22651;-69
2023/03/14 04:26:44;;;;;;;6.60;3.80;;;;;;;1.58;100.00;99366.70;109372;1282;22668;-68
2023/03/14 04:29:12;;;;;;;6.90;4.00;;;;;;;1.57;100.00;99362.44;109429;1281;22178;-69
2023/03/14 04:31:43;;;;;;;7.40;4.40;;;;;;;1.55;100.00;99354.27;109418;1288;23091;-68
2023/03/14 04:34:13;;;;;;;8.20;4.60;;;;;;;1.52;100.00;99350.73;109518;1285;22209;-70
2023/03/14 04:36:49;;;;;;;6.70;3.70;;;;;;;1.56;100.00;99344.21;109412;1282;22479;-68
2023/03/14 04:39:22;;;;;;;5.40;4.00;;;;;;;1.60;100.00;99336.65;109393;1286;22386;-69
2023/03/14 04:42:00;;;;;;;6.50;3.60;;;;;;;1.57;100.00;99330.21;109492;1285;23588;-68
2023/03/14 04:44:28;;;;;;;7.20;4.50;;;;;;;1.56;100.00;99321.83;109437;1281;22353;-68
2023/03/14 04:46:57;;;;;;;7.30;4.20;;;;;;;1.60;100.00;99320.55;109425;1281;22462;-68
2023/03/14 04:49:26;;;;;;;6.30;3.90;;;;;;;1.71;100.00;99320.34;109439;1288;22448;-68
2023/03/14 04:51:55;;;;;;;7.50;4.20;;;;;;;1.77;100.00;99318.70;109324;1284;22516;-68
2023/03/14 04:54:25;;;;;;;6.30;3.80;;;;;;;1.84;100.00;99317.55;109334;1289;22233;-68
2023/03/14 04:57:02;;;;;;;8.20;4.10;;;;;;;1.90;100.00;99315.52;109463;1288;22881;-68
2023/03/14 04:59:33;;;;;;;7.20;4.00;;;;;;;1.94;100.00;99314.89;109505;1288;22397;-69
2023/03/14 05:02:14;;;;;;;6.40;3.80;;;;;;;2.09;100.00;99309.86;109764;1280;22204;-69
2023/03/14 05:05:15;;;;;;;6.80;3.60;;;;;;;2.18;100.00;99313.08;109736;1280;22451;-69
2023/03/14 05:08:02;;;;;;;7.00;3.90;;;;;;;2.23;100.00;99307.06;109836;1281;22353;-69
2023/03/14 05:11:02;;;;;;;6.60;3.80;;;;;;;2.34;100.00;99302.86;109543;1273;22364;-69
2023/03/14 05:13:49;;;;;;;7.40;3.90;;;;;;;2.44;100.00;99304.31;109863;1278;23071;-70
2023/03/14 05:16:33;;;;;;;6.60;3.90;;;;;;;2.55;100.00;99306.05;109908;1281;22386;-70
2023/03/14 05:19:14;;;;;;;5.90;3.90;;;;;;;2.68;100.00;99301.59;109821;1281;23032;-69
2023/03/14 05:22:01;;;;;;;5.00;3.20;;;;;;;2.82;100.00;99302.77;109888;1279;23073;-69
2023/03/14 05:25:03;;;;;;;6.80;3.50;;;;;;;3.00;100.00;99316.13;109791;1281;22361;-70
2023/03/14 05:28:06;;;;;;;6.50;3.60;;;;;;;3.21;100.00;99330.35;109459;1281;23115;-69
2023/03/14 05:30:54;;;;;;;5.60;3.50;;;;;;;3.44;100.00;99334.69;109787;1278;23439;-69
2023/03/14 05:33:33;;;;;;;5.10;3.10;;;;;;;3.65;100.00;99338.73;109760;1278;22341;-70
2023/03/14 05:36:28;;;;;;;5.80;3.50;;;;;;;3.87;100.00;99344.39;109713;1275;22367;-70
2023/03/14 05:39:37;;;;;;;5.70;3.10;;;;;;;4.08;100.00;99341.80;109517;1286;23147;-70
2023/03/14 05:42:25;;;;;;;6.00;3.10;;;;;;;4.23;100.00;99328.80;108992;1285;23501;-69
2023/03/14 05:45:12;;;;;;;4.50;3.00;;;;;;;4.16;100.00;99325.91;109773;1273;22490;-69
2023/03/14 05:48:01;;;;;;;4.80;3.10;;;;;;;3.98;100.00;99320.05;109677;1280;23160;-69
2023/03/14 05:50:55;;;;;;;5.50;3.00;;;;;;;3.77;100.00;99324.53;109784;1273;22256;-69
2023/03/14 05:53:37;;;;;;;8.10;3.30;;;;;;;3.64;100.00;99324.35;109744;1280;22990;-69
2023/03/14 05:56:33;;;;;;;6.70;3.50;;;;;;;3.57;100.00;99320.50;109840;1274;22492;-70
2023/03/14 05:59:24;;;;;;;5.70;3.10;;;;;;;3.54;100.00;99329.09;109703;1281;22983;-69
2023/03/14 06:02:22;;;;;;;5.80;3.20;;;;;;;3.61;100.00;99334.89;109760;1274;23027;-69
2023/03/14 06:05:08;;;;;;;7.90;3.60;;;;;;;3.49;100.00;99328.18;109378;1280;22803;-69
2023/03/14 06:07:38;;;;;;;5.90;3.60;;;;;;;3.53;100.00;99345.34;105952;1278;23299;-69
2023/03/14 06:10:07;;;;;;;5.70;2.90;;;;;;;3.50;100.00;99352.45;106139;1273;22543;-68
2023/03/14 06:12:37;;;;;;;9.40;3.80;;;;;;;3.50;100.00;99345.32;109817;1280;23080;-70
2023/03/14 06:15:07;;;;;;;5.70;2.80;;;;;;;3.46;100.00;99346.46;106778;1274;23218;-69
2023/03/14 06:17:35;;;;;;;4.70;3.10;;;;;;;3.45;100.00;99346.80;108706;1277;22560;-69
2023/03/14 06:20:10;;;;;;;5.60;3.00;;;;;;;3.50;100.00;99343.27;107434;1281;23296;-69
2023/03/14 06:22:40;;;;;;;6.60;3.20;;;;;;;3.51;100.00;99340.97;107271;1277;22534;-68
2023/03/14 06:25:18;;;;;;;6.20;3.10;;;;;;;3.50;100.00;99334.88;107150;1278;22543;-69
2023/03/14 06:27:56;;;;;;;5.10;3.50;;;;;;;3.47;100.00;99329.21;107233;1281;26530;-69
2023/03/14 06:30:24;;;;;;;5.10;2.80;;;;;;;3.46;100.00;99328.81;107645;1281;23048;-70
2023/03/14 06:32:53;;;;;;;5.20;3.30;;;;;;;3.48;100.00;99326.96;107124;1275;22667;-69
2023/03/14 06:35:23;;;;;;;6.70;3.00;;;;;;;3.51;100.00;99319.98;106919;1274;25001;-69
2023/03/14 06:37:52;;;;;;;6.10;2.90;;;;;;;3.59;100.00;99315.74;107258;1280;22535;-69
2023/03/14 06:40:21;;;;;;;7.10;3.10;;;;;;;3.61;100.00;99309.66;107286;1274;23276;-69
2023/03/14 06:42:58;;;;;;;5.80;2.90;;;;;;;3.61;100.00;99307.77;107064;1280;22903;-70
2023/03/14 06:45:28;;;;;;;6.70;3.10;;;;;;;3.62;100.00;99304.89;107351;1274;25331;-69
2023/03/14 06:47:59;;;;;;;5.10;2.90;;;;;;;3.68;100.00;99300.91;107171;1276;26553;-69
2023/03/14 06:50:38;;;;;;;5.80;3.30;;;;;;;3.77;100.00;99290.92;108430;1274;23231;-69
2023/03/14 06:53:06;;;;;;;5.50;3.10;;;;;;;3.83;100.00;99285.23;109840;1281;22906;-69
2023/03/14 06:55:36;;;;;;;5.70;3.10;;;;;;;3.89;100.00;99287.35;109833;1280;22468;-69
2023/03/14 06:58:06;;;;;;;5.70;3.00;;;;;;;3.98;100.00;99286.39;109809;1281;22438;-70
2023/03/14 07:00:41;;;;;;;7.20;3.80;;;;;;;4.14;100.00;99287.08;109844;1282;22293;-70
2023/03/14 07:03:10;;;;;;;8.40;3.20;;;;;;;4.37;100.00;99283.71;109836;1260;23033;-70
2023/03/14 07:05:45;;;;;;;5.90;2.90;;;;;;;4.63;100.00;99272.31;109848;1281;22299;-70
2023/03/14 07:08:14;;;;;;;5.40;2.90;;;;;;;4.89;100.00;99272.08;109867;1275;22541;-70
2023/03/14 07:10:42;;;;;;;4.70;3.00;;;;;;;5.10;100.00;99264.95;109886;1274;22279;-71
2023/03/14 07:13:11;;;;;;;6.20;3.00;;;;;;;5.21;100.00;99260.66;109772;1281;22983;-70
2023/03/14 07:15:49;;;;;;;4.80;2.90;;;;;;;5.20;100.00;99262.79;109805;1281;22387;-70
2023/03/14 07:18:17;;;;;;;5.20;3.10;;;;;;;5.16;100.00;99267.45;109830;1280;22357;-71
2023/03/14 07:20:52;;;;;;;5.80;3.20;;;;;;;5.19;100.00;99275.08;109725;1274;23244;-70
2023/03/14 07:23:21;;;;;;;5.50;3.10;;;;;;;5.29;100.00;99273.92;109859;1280;22296;-70
2023/03/14 07:25:53;;;;;;;5.00;2.90;;;;;;;5.53;100.00;99276.41;109799;1275;22447;-70
2023/03/14 07:28:23;;;;;;;5.50;3.00;;;;;;;5.82;100.00;99276.21;109874;1281;22566;-69
2023/03/14 07:30:56;;;;;;;5.60;3.20;;;;;;;6.05;100.00;99267.58;109842;1277;22875;-70
2023/03/14 07:33:29;;;;;;;6.20;3.00;;;;;;;6.20;100.00;99262.55;109889;1274;22208;-70
2023/03/14 07:35:57;;;;;;;6.80;3.00;;;;;;;6.30;100.00;99263.67;109849;1278;22321;-70
2023/03/14 07:38:26;;;;;;;6.10;3.10;;;;;;;6.40;100.00;99262.58;109782;1277;23042;-70
2023/03/14 07:41:24;;;;;;;7.20;3.70;;;;;;;6.54;100.00;99252.17;109602;1281;22248;-71
2023/03/14 07:44:18;;;;;;;5.80;3.00;;;;;;;6.66;100.00;99254.92;109915;1280;23292;-71
2023/03/14 07:46:47;;;;;;;4.60;3.10;;;;;;;6.75;100.00;99248.63;109889;1274;23081;-71
2023/03/14 07:49:16;;;;;;;5.30;3.10;;;;;;;6.97;100.00;99246.29;109949;1278;22198;-70
2023/03/14 07:51:48;;;;;;;7.00;3.50;;;;;;;7.22;100.00;99243.64;109877;1278;22414;-71
2023/03/14 07:54:16;;;;;;;5.40;3.40;;;;;;;7.40;100.00;99240.53;109927;1279;22884;-71
2023/03/14 07:56:47;;;;;;;4.60;3.10;;;;;;;7.48;100.00;99238.85;109891;1275;22260;-72
2023/03/14 07:59:15;;;;;;;5.80;3.50;;;;;;;7.61;100.00;99240.59;109860;1279;22417;-71
2023/03/14 08:01:43;;;;;;;6.30;3.90;;;;;;;7.82;100.00;99242.77;109912;1274;22409;-71
2023/03/14 08:04:11;;;;;;;5.60;3.60;;;;;;;8.10;100.00;99235.23;109923;1273;22350;-70
2023/03/14 08:06:40;;;;;;;6.20;3.40;;;;;;;8.34;100.00;99234.44;109936;1273;22608;-71
2023/03/14 08:09:08;;;;;;;7.00;3.70;;;;;;;8.50;100.00;99227.73;109908;1279;22194;-70
2023/03/14 08:11:40;;;;;;;6.50;3.50;;;;;;;8.68;100.00;99223.70;109937;1273;22382;-70
2023/03/14 08:14:10;;;;;;;9.30;4.10;;;;;;;8.74;100.00;99218.56;110298;1276;22254;-72
2023/03/14 08:16:40;;;;;;;6.40;3.40;;;;;;;8.84;100.00;99222.79;109569;1270;25249;-70
2023/03/14 08:19:09;;;;;;;7.20;3.50;;;;;;;8.99;100.00;99226.36;107696;1270;24389;-70
2023/03/14 08:21:38;;;;;;;4.80;3.10;;;;;;;9.10;100.00;99213.19;107538;1276;22964;-70
2023/03/14 08:24:13;;;;;;;5.00;3.40;;;;;;;9.20;100.00;99216.59;107451;1276;23344;-69
2023/03/14 08:26:41;;;;;;;5.30;3.30;;;;;;;9.34;100.00;99211.89;107542;1273;25504;-69
2023/03/14 08:29:09;;;;;;;4.90;3.30;;;;;;;9.43;100.00;99207.77;107907;1270;26501;-70
2023/03/14 08:31:38;;;;;;;4.60;3.10;;;;;;;9.49;100.00;99201.02;107642;1274;25328;-69
2023/03/14 08:34:06;;;;;;;5.40;3.20;;;;;;;9.61;100.00;99200.05;107587;1271;25224;-70
2023/03/14 08:36:35;;;;;;;4.70;3.30;;;;;;;9.72;100.00;99199.90;107504;1269;22525;-69
2023/03/14 08:39:03;;;;;;;5.50;3.40;;;;;;;9.79;100.00;99199.98;107491;1275;22537;-70
2023/03/14 08:41:32;;;;;;;4.80;2.90;;;;;;;9.83;100.00;99196.70;107873;1272;22637;-69
2023/03/14 08:44:02;;;;;;;5.30;3.50;;;;;;;9.95;100.00;99198.14;107923;1270;23847;-69
2023/03/14 08:46:31;;;;;;;4.80;3.30;;;;;;;10.09;100.00;99205.14;107714;1270;25451;-69
2023/03/14 08:49:03;;;;;;;7.00;4.00;;;;;;;10.16;100.00;99208.27;107555;1273;25362;-70
2023/03/14 08:51:32;;;;;;;5.60;3.70;;;;;;;10.21;100.00;99214.71;107611;1274;22654;-70
2023/03/14 08:54:01;;;;;;;4.90;3.20;;;;;;;10.29;100.00;99212.33;107627;1270;22523;-69
2023/03/14 08:56:29;;;;;;;6.70;3.30;;;;;;;10.30;100.00;99200.95;107474;1270;22547;-70
2023/03/14 08:58:58;;;;;;;6.10;3.10;;;;;;;10.29;100.00;99194.91;110223;1276;22324;-70
2023/03/14 09:01:29;;;;;;;5.60;3.40;;;;;;;10.30;100.00;99192.58;110216;1270;22465;-70
2023/03/14 09:03:58;;;;;;;5.90;3.10;;;;;;;10.40;100.00;99194.02;110212;1271;22374;-70
2023/03/14 09:06:30;;;;;;;7.20;3.30;;;;;;;10.51;100.00;99192.59;110205;1271;22381;-70
2023/03/14 09:09:01;;;;;;;7.90;3.00;;;;;;;10.65;100.00;99185.60;110198;1269;22947;-70
2023/03/14 09:11:30;;;;;;;4.80;3.10;;;;;;;10.74;100.00;99184.11;110230;1269;22253;-70
2023/03/14 09:14:00;;;;;;;5.50;3.00;;;;;;;10.83;100.00;99187.41;110215;1272;23136;-70
2023/03/14 09:16:29;;;;;;;7.50;2.90;;;;;;;11.07;100.00;99186.15;110231;1270;22198;-70
2023/03/14 09:18:59;;;;;;;5.40;3.00;;;;;;;11.23;100.00;99182.26;110218;1268;23455;-69
2023/03/14 09:21:35;;;;;;;3.90;3.10;;;;;;;11.30;100.00;99180.16;110233;1276;22309;-69
2023/03/14 09:24:03;;;;;;;4.80;2.90;;;;;;;11.25;100.00;99172.00;110313;1275;22385;-70
2023/03/14 09:26:32;;;;;;;3.90;2.80;;;;;;;11.27;100.00;99181.23;110380;1276;22275;-70
2023/03/14 09:29:03;;;;;;;6.00;3.40;;;;;;;11.41;100.00;99175.83;110268;1271;22363;-71
2023/03/14 09:31:31;;;;;;;4.50;2.60;;;;;;;11.55;100.00;99175.52;110260;1270;22426;-70
2023/03/14 09:34:01;;;;;;;4.30;2.70;;;;;;;11.54;100.00;99175.04;110277;1273;22284;-70
2023/03/14 09:36:30;;;;;;;4.10;2.70;;;;;;;11.46;100.00;99173.17;108377;1269;25826;-70
2023/03/14 09:38:58;;;;;;;5.60;3.20;;;;;;;11.52;100.00;99171.18;107649;1276;25290;-69
2023/03/14 09:41:29;;;;;;;3.80;2.70;;;;;;;11.54;100.00;99162.21;109872;1269;22339;-70
2023/03/14 09:44:03;;;;;;;5.90;2.80;;;;;;;11.37;100.00;99161.16;110024;1275;22277;-69
2023/03/14 09:46:31;;;;;;;4.30;2.70;;;;;;;11.34;100.00;99151.29;110256;1269;23905;-70
2023/03/14 09:48:59;;;;;;;4.10;2.90;;;;;;;11.35;100.00;99155.19;110002;1270;23171;-70
2023/03/14 09:51:28;;;;;;;3.80;2.60;;;;;;;11.36;100.00;99147.02;110273;1269;22722;-70
2023/03/14 09:53:56;;;;;;;6.00;3.10;;;;;;;11.38;100.00;99142.04;110159;1271;22642;-70
2023/03/14 09:56:29;;;;;;;4.50;2.60;;;;;;;11.44;100.00;99147.68;110246;1273;22415;-71
2023/03/14 09:59:03;;;;;;;3.80;2.40;;;;;;;11.49;100.00;99140.10;110015;1269;23132;-70
2023/03/14 10:01:33;;;;;;;6.50;3.00;;;;;;;11.56;100.00;99133.09;110273;1269;23007;-70
2023/03/14 10:04:05;;;;;;;4.50;2.90;;;;;;;11.59;100.00;99130.96;110252;1270;23703;-72
2023/03/14 10:06:34;;;;;;;7.20;2.80;;;;;;;11.47;100.00;99133.36;110022;1276;22882;-71
2023/03/14 10:09:03;;;;;;;3.40;2.40;;;;;;;11.38;100.00;99130.69;110271;1270;23201;-70
2023/03/14 10:11:32;;;;;;;5.20;2.40;;;;;;;11.27;100.00;99130.38;110142;1275;22460;-70
2023/03/14 10:14:08;;;;;;;3.70;2.40;;;;;;;11.17;100.00;99135.41;110254;1270;22294;-70
2023/03/14 10:16:41;;;;;;;4.10;2.60;;;;;;;11.14;100.00;99133.98;110251;1271;23197;-70
2023/03/14 10:19:11;;;;;;;4.20;2.40;;;;;;;11.10;100.00;99125.19;110244;1275;22367;-71
2023/03/14 10:21:41;;;;;;;5.50;2.50;;;;;;;11.07;100.00;99134.05;110201;1271;22385;-69
2023/03/14 10:24:24;;;;;;;6.00;2.20;;;;;;;10.98;100.00;99132.36;110206;1273;22949;-71
2023/03/14 10:27:04;;;;;;;5.10;2.10;;;;;;;10.87;100.00;99125.45;110320;1270;22258;-70
2023/03/14 10:29:34;;;;;;;3.80;2.60;;;;;;;10.83;100.00;99120.47;110201;1271;22350;-70
2023/03/14 10:32:04;;;;;;;4.40;2.30;;;;;;;10.89;100.00;99118.08;110219;1272;22763;-70
2023/03/14 10:34:34;;;;;;;5.20;2.10;;;;;;;10.94;100.00;99110.39;110226;1270;22468;-70
2023/03/14 10:37:25;;;;;;;4.30;2.30;;;;;;;11.00;100.00;99111.36;110077;1271;23104;-71
2023/03/14 10:39:55;;;;;;;2.90;2.00;;;;;;;11.03;100.00;99108.23;110218;1274;22931;-70
2023/03/14 10:42:34;;;;;;;3.90;2.60;;;;;;;10.97;100.00;99103.93;110110;1276;23174;-68
2023/03/14 10:45:15;;;;;;;4.10;2.50;;;;;;;10.99;100.00;99104.35;110115;1271;23240;-68
2023/03/14 10:47:49;;;;;;;5.60;2.60;;;;;;;11.07;100.00;99104.09;110106;1273;22192;-67
2023/03/14 10:50:28;;;;;;;4.70;2.70;;;;;;;11.16;100.00;99101.93;110187;1270;22289;-68
2023/03/14 10:52:57;;;;;;;4.10;2.20;;;;;;;11.23;100.00;99098.34;110099;1272;22254;-67
2023/03/14 10:55:40;;;;;;;4.90;2.40;;;;;;;11.27;100.00;99096.27;110089;1274;22260;-70
2023/03/14 10:58:28;;;;;;;5.80;2.40;;;;;;;11.31;100.00;99084.90;110194;1270;22232;-70
2023/03/14 11:01:34;;;;;;;4.00;2.30;;;;;;;11.35;100.00;99079.66;110208;1270;23078;-70
2023/03/14 11:04:31;;;;;;;9.90;5.10;;;;;;;11.36;100.00;99076.59;110211;1276;22405;-71
2023/03/14 11:07:22;;;;;;;5.50;2.60;;;;;;;11.29;100.00;99068.97;110152;1271;22346;-70
2023/03/14 11:10:43;;;;;;;5.50;2.60;;;;;;;11.30;100.00;99070.14;110234;1271;22328;-71
2023/03/14 11:13:28;;;;;;;3.20;2.00;;;;;;;11.38;100.00;99058.59;110158;1272;22398;-72
2023/03/14 11:16:17;;;;;;;5.10;2.30;;;;;;;11.39;100.00;99058.08;110220;1273;22213;-71
2023/03/14 11:19:17;;;;;;;3.60;2.20;;;;;;;11.41;100.00;99053.80;110136;1274;22691;-71
2023/03/14 11:22:25;;;;;;;5.60;2.30;;;;;;;11.47;100.00;99053.84;110028;1275;22204;-71
2023/03/14 11:25:01;;;;;;;5.30;2.30;;;;;;;11.48;100.00;99052.55;110210;1270;22466;-71
2023/03/14 11:27:45;;;;;;;4.00;2.50;;;;;;;11.42;100.00;99047.80;110094;1272;22385;-71
2023/03/14 11:30:19;;;;;;;4.70;2.10;;;;;;;11.47;100.00;99034.92;110301;1268;22280;-71
2023/03/14 11:32:51;;;;;;;3.60;2.20;;;;;;;11.45;100.00;99036.41;109403;1276;25389;-70
2023/03/14 11:35:22;;;;;;;5.60;2.10;;;;;;;11.44;100.00;99040.80;107660;1276;24362;-71
2023/03/14 11:38:19;;;;;;;4.80;2.00;;;;;;;11.48;100.00;99035.66;107605;1276;22564;-71
2023/03/14 11:40:48;;;;;;;2.90;1.90;;;;;;;11.56;100.00;99033.76;107731;1276;25510;-72
2023/03/14 11:43:21;;;;;;;3.10;1.70;;;;;;;11.49;100.00;99034.02;107750;1276;22564;-70
2023/03/14 11:45:49;;;;;;;3.90;2.20;;;;;;;11.49;100.00;99038.15;110214;1269;22476;-72
2023/03/14 11:48:35;;;;;;;4.40;2.00;;;;;;;11.48;100.00;99028.80;110051;1276;22625;-71
2023/03/14 11:51:09;;;;;;;3.50;2.00;;;;;;;11.44;100.00;99029.16;110173;1276;22323;-71
2023/03/14 11:54:00;;;;;;;3.70;2.40;;;;;;;11.43;100.00;99028.65;110234;1274;22353;-71